This is the latest recevied weather packets stored in our database for station/object BV5AB-13. If no packets are shown the sender has not sent any weather packets the latest 10 day(s).
| Time | Temp. | Humidity | Pressure | Rain* | Wind** | Luminosity | Snow |
|---|---|---|---|---|---|---|---|
| 1777491424 | 21.67° C | 93% | 1002 hPa | 0 mm | - | - | - |
| 1777490824 | 21.67° C | 93% | 1002 hPa | 0 mm | - | - | - |
| 1777490223 | 21.67° C | 93% | 1002.2 hPa | 0 mm | - | - | - |
| 1777489023 | 21.67° C | 93% | 1002.3 hPa | 0 mm | - | - | - |
| 1777487224 | 21.67° C | 93% | 1002.4 hPa | 0 mm | - | - | - |
| 1777486024 | 22.22° C | 93% | 1002.5 hPa | 0 mm | - | - | - |
| 1777485423 | 22.22° C | 93% | 1002.7 hPa | 0 mm | - | - | - |
| 1777484223 | 22.78° C | 94% | 1002.7 hPa | 0 mm | - | - | - |
| 1777483024 | 22.78° C | 96% | 1002.7 hPa | 0.51 mm | - | - | - |
| 1777482423 | 22.78° C | 95% | 1002.7 hPa | 0.51 mm | - | - | - |
| 1777481825 | 22.78° C | 95% | 1003 hPa | 0.51 mm | - | - | - |
| 1777480623 | 22.78° C | 94% | 1003.5 hPa | 0.51 mm | - | - | - |
| 1777480024 | 22.78° C | 94% | 1003.4 hPa | 0.51 mm | - | - | - |
| 1777479423 | 22.78° C | 94% | 1003.7 hPa | 0 mm | - | - | - |
| 1777478824 | 23.33° C | 95% | 1003.9 hPa | 0 mm | - | - | - |
| 1777478224 | 23.33° C | 95% | 1004 hPa | 0 mm | - | - | - |
| 1777477623 | 23.33° C | 95% | 1004 hPa | 0 mm | - | - | - |
| 1777477024 | 23.33° C | 95% | 1004.1 hPa | 0 mm | - | - | - |
| 1777476424 | 23.33° C | 94% | 1004.1 hPa | 0 mm | - | - | - |
| 1777475824 | 23.33° C | 95% | 1004.1 hPa | 3.56 mm | - | - | - |
| 1777475224 | 23.33° C | 95% | 1004.1 hPa | 5.08 mm | - | - | - |
| 1777473424 | 23.33° C | 95% | 1004.5 hPa | 15.49 mm | - | - | - |
| 1777471624 | 23.89° C | 94% | 1004.3 hPa | 10.92 mm | - | - | - |
| 1777471024 | 23.89° C | 92% | 1004.2 hPa | 8.38 mm | - | - | - |
| 1777469823 | 24.44° C | 88% | 1004.1 hPa | 0.51 mm | - | - | - |
* Rain latest hour (hover to see other rain measurements)
** Current wind speed in m/s (hover to see current wind gust speed)